Time;durP1;ratioP1;P1;durP2;ratioP2;P2;SDS_P1;SDS_P2;PMS_P1;PMS_P2;Temp;Humidity;BMP_temperature;BMP_pressure;BME280_temperature;BME280_humidity;BME280_pressure;Samples;Min_cycle;Max_cycle;Signal;HPM_P1;HPM_P2
2023/08/14 00:01:43;;;;;;;6.88;1.00;;;;;;;15.92;70.52;101512.09;5055702;28;20045;-80
2023/08/14 00:04:10;;;;;;;1.88;1.25;;;;;;;15.90;70.50;101511.25;5049284;28;20047;-81
2023/08/14 00:06:37;;;;;;;1.05;0.90;;;;;;;15.86;70.55;101511.41;5060998;28;20370;-81
2023/08/14 00:09:04;;;;;;;6.45;1.10;;;;;;;15.83;70.88;101512.38;5057150;28;20052;-81
2023/08/14 00:11:31;;;;;;;4.43;1.30;;;;;;;15.59;70.76;101476.13;5052075;28;20041;-81
2023/08/14 00:13:59;;;;;;;3.95;1.17;;;;;;;15.80;70.78;101512.44;5054796;28;20644;-82
2023/08/14 00:16:27;;;;;;;3.70;1.15;;;;;;;15.77;70.70;101504.63;5060855;28;20411;-80
2023/08/14 00:18:54;;;;;;;2.55;1.08;;;;;;;15.60;70.59;101480.53;5058958;28;20045;-81
2023/08/14 00:21:21;;;;;;;3.80;1.42;;;;;;;15.69;70.75;101509.25;5058117;28;20057;-81
2023/08/14 00:23:48;;;;;;;4.82;1.17;;;;;;;15.71;70.86;101518.00;5057781;28;20062;-81
2023/08/14 00:26:15;;;;;;;2.00;1.00;;;;;;;15.68;70.82;101516.31;5060437;28;20087;-81
2023/08/14 00:28:42;;;;;;;1.30;0.90;;;;;;;15.67;70.94;101521.56;5053838;28;20803;-81
2023/08/14 00:31:10;;;;;;;0.98;0.88;;;;;;;15.59;70.76;101518.28;5056663;28;20884;-81
2023/08/14 00:33:37;;;;;;;5.18;1.08;;;;;;;15.60;70.68;101526.16;5061301;28;20040;-81
2023/08/14 00:36:06;;;;;;;2.70;1.10;;;;;;;15.60;70.93;101522.66;5059176;28;20047;-81
2023/08/14 00:38:35;;;;;;;4.65;2.05;;;;;;;15.57;71.07;101527.97;5051728;28;20546;-81
2023/08/14 00:41:02;;;;;;;4.43;0.95;;;;;;;15.41;70.88;101498.59;5056128;28;20048;-80
2023/08/14 00:43:29;;;;;;;3.83;1.23;;;;;;;15.52;71.06;101520.22;5054151;28;20053;-81
2023/08/14 00:45:57;;;;;;;1.20;1.13;;;;;;;15.50;71.15;101520.25;5058490;28;20127;-80
2023/08/14 00:48:27;;;;;;;3.50;1.40;;;;;;;15.47;71.23;101522.97;5055779;28;20047;-81
2023/08/14 00:50:55;;;;;;;2.95;1.30;;;;;;;15.40;71.42;101510.88;5064452;28;20051;-84
2023/08/14 00:53:25;;;;;;;3.13;1.30;;;;;;;15.44;71.17;101520.41;5061178;28;20055;-84
2023/08/14 00:55:52;;;;;;;1.90;1.27;;;;;;;15.43;71.33;101525.75;5057307;28;20053;-84
2023/08/14 00:58:19;;;;;;;4.65;1.27;;;;;;;15.41;71.41;101525.78;5056249;28;20379;-84
2023/08/14 01:00:47;;;;;;;3.28;1.58;;;;;;;15.40;71.64;101531.09;5060667;28;20045;-84
2023/08/14 01:03:14;;;;;;;5.80;1.48;;;;;;;15.37;71.54;101531.13;5057625;28;20049;-83
2023/08/14 01:05:43;;;;;;;1.60;1.00;;;;;;;15.38;71.72;101533.75;5051458;28;20183;-84
2023/08/14 01:08:10;;;;;;;3.72;1.33;;;;;;;15.36;71.68;101532.91;5054675;28;20044;-84
2023/08/14 01:10:46;;;;;;;4.35;1.30;;;;;;;15.30;71.62;101522.56;5051126;28;20052;-84
2023/08/14 01:13:24;;;;;;;5.38;1.35;;;;;;;15.32;71.83;101530.44;5055103;28;20055;-85
2023/08/14 01:15:56;;;;;;;5.95;1.60;;;;;;;15.30;71.92;101528.69;5062866;28;20506;-84
2023/08/14 01:18:26;;;;;;;1.40;0.95;;;;;;;15.19;71.90;101514.06;5061277;28;20058;-84
2023/08/14 01:21:10;;;;;;;5.78;1.20;;;;;;;15.28;72.00;101529.63;5059216;28;20045;-83
2023/08/14 01:23:50;;;;;;;3.22;1.48;;;;;;;15.18;71.72;101521.09;5062778;28;20048;-84
2023/08/14 01:26:19;;;;;;;5.95;1.30;;;;;;;15.01;72.13;101495.22;5063168;28;20494;-85
2023/08/14 01:28:46;;;;;;;2.47;1.13;;;;;;;15.19;72.11;101527.22;5058270;28;20045;-84
2023/08/14 01:31:13;;;;;;;4.85;1.40;;;;;;;15.23;71.98;101547.31;5053805;28;20048;-84
2023/08/14 01:33:40;;;;;;;5.07;1.38;;;;;;;15.20;72.23;101539.50;5060310;28;20858;-84
2023/08/14 01:36:14;;;;;;;3.17;1.38;;;;;;;15.17;72.27;101540.44;5059520;28;20052;-83
2023/08/14 01:38:50;;;;;;;1.88;1.17;;;;;;;15.18;72.07;101544.78;5056428;28;20689;-84
2023/08/14 01:41:25;;;;;;;3.58;1.25;;;;;;;15.16;72.14;101545.72;5060156;28;20055;-83
2023/08/14 01:43:58;;;;;;;3.30;0.90;;;;;;;15.08;72.17;101532.75;5053773;28;20041;-83
2023/08/14 01:46:27;;;;;;;2.17;1.25;;;;;;;15.01;71.91;101520.66;5064144;28;20125;-83
2023/08/14 01:48:57;;;;;;;4.95;1.30;;;;;;;15.11;72.21;101542.34;5060132;28;20042;-83
2023/08/14 01:51:24;;;;;;;2.13;1.90;;;;;;;15.11;72.07;101544.97;5058729;28;20461;-84
2023/08/14 01:53:51;;;;;;;4.22;1.52;;;;;;;14.88;72.13;101514.84;5054836;28;20064;-83
2023/08/14 01:56:20;;;;;;;3.45;1.10;;;;;;;15.07;71.93;101536.31;5061539;28;20047;-83
2023/08/14 01:58:47;;;;;;;5.18;1.15;;;;;;;15.05;72.09;101549.50;5060179;28;20051;-77
2023/08/14 02:01:14;;;;;;;4.93;1.48;;;;;;;15.03;72.23;101546.03;5059379;28;20475;-77
2023/08/14 02:03:40;;;;;;;2.65;1.30;;;;;;;15.02;72.19;101544.28;5055892;28;20040;-77
2023/08/14 02:06:07;;;;;;;4.65;1.25;;;;;;;15.01;72.19;101539.09;5056856;28;20051;-76
2023/08/14 02:08:34;;;;;;;3.60;1.55;;;;;;;15.00;72.27;101540.88;5055432;28;20083;-77
2023/08/14 02:11:07;;;;;;;3.08;1.20;;;;;;;14.97;72.59;101550.56;5040465;28;20044;-77
2023/08/14 02:13:36;;;;;;;2.22;1.50;;;;;;;14.91;72.44;101540.19;5055935;28;20045;-77
2023/08/14 02:16:04;;;;;;;4.55;1.33;;;;;;;14.96;72.50;101552.34;5056508;28;20040;-77
2023/08/14 02:18:30;;;;;;;2.08;1.25;;;;;;;14.95;72.52;101548.00;5053144;28;20492;-76
2023/08/14 02:20:57;;;;;;;1.77;1.45;;;;;;;14.94;72.34;101542.75;5055046;28;20056;-77
2023/08/14 02:23:24;;;;;;;3.22;1.00;;;;;;;14.91;72.45;101543.69;5052968;28;20040;-77
2023/08/14 02:25:54;;;;;;;5.22;1.50;;;;;;;14.90;72.42;101539.34;5052871;28;20408;-77
2023/08/14 02:28:21;;;;;;;2.85;1.00;;;;;;;14.89;72.42;101542.88;5055845;28;20068;-77
2023/08/14 02:30:50;;;;;;;3.70;1.17;;;;;;;14.87;72.47;101539.41;5049871;28;20883;-77
2023/08/14 02:33:16;;;;;;;4.70;1.20;;;;;;;14.83;72.52;101532.53;5056113;28;20048;-77
2023/08/14 02:35:43;;;;;;;3.13;1.13;;;;;;;14.85;72.46;101538.59;5053092;28;20426;-77
2023/08/14 02:38:10;;;;;;;4.13;1.10;;;;;;;14.83;72.57;101537.78;5049295;28;20044;-77
2023/08/14 02:40:39;;;;;;;4.80;1.30;;;;;;;14.83;72.52;101532.53;5058985;28;20055;-77
2023/08/14 02:43:06;;;;;;;2.90;1.40;;;;;;;14.77;72.60;101530.00;5058043;28;20403;-77
2023/08/14 02:45:33;;;;;;;8.98;1.83;;;;;;;14.82;72.69;101538.66;5056289;28;20088;-76
2023/08/14 02:48:01;;;;;;;1.92;1.52;;;;;;;14.79;72.70;101539.59;5056373;28;20052;-77
2023/08/14 02:50:28;;;;;;;1.58;1.20;;;;;;;14.78;72.82;101539.66;5054999;28;20049;-77
2023/08/14 02:52:55;;;;;;;2.33;1.23;;;;;;;14.77;72.72;101545.78;5056490;28;20045;-77
2023/08/14 02:55:22;;;;;;;2.53;1.52;;;;;;;14.76;72.69;101544.06;5056514;28;20048;-77
2023/08/14 02:57:49;;;;;;;2.85;1.42;;;;;;;14.74;72.81;101546.75;5054693;28;20149;-77
2023/08/14 03:00:16;;;;;;;2.03;1.40;;;;;;;14.74;72.82;101548.50;5056437;28;20399;-77
2023/08/14 03:02:43;;;;;;;5.22;1.80;;;;;;;14.72;72.67;101545.06;5053152;28;20083;-77
2023/08/14 03:05:12;;;;;;;2.55;1.33;;;;;;;14.71;72.75;101543.31;5055107;28;20479;-77
2023/08/14 03:07:40;;;;;;;3.80;1.35;;;;;;;14.70;72.50;101546.84;5059129;28;20060;-77
2023/08/14 03:10:07;;;;;;;3.95;1.30;;;;;;;14.45;72.70;101510.56;5054515;28;20041;-81
2023/08/14 03:12:34;;;;;;;5.50;1.40;;;;;;;14.60;72.65;101540.94;5061798;28;20048;-81
2023/08/14 03:15:01;;;;;;;1.98;1.30;;;;;;;14.66;72.69;101550.44;5059581;28;20077;-81
2023/08/14 03:17:28;;;;;;;4.47;1.60;;;;;;;14.59;72.90;101539.19;5052801;28;20049;-80
2023/08/14 03:19:55;;;;;;;2.80;1.30;;;;;;;14.62;72.77;101555.75;5052290;28;20156;-82
2023/08/14 03:22:24;;;;;;;4.53;1.48;;;;;;;14.61;72.80;101551.41;5058948;28;20044;-81
2023/08/14 03:24:51;;;;;;;2.92;1.23;;;;;;;14.60;72.94;101557.59;5055082;28;20053;-81
2023/08/14 03:27:17;;;;;;;5.45;1.33;;;;;;;14.57;72.94;101555.03;5058838;28;20076;-82
2023/08/14 03:29:44;;;;;;;2.97;1.40;;;;;;;14.57;72.79;101562.91;5067697;28;20045;-82
2023/08/14 03:32:11;;;;;;;3.67;1.35;;;;;;;14.55;73.01;101559.44;5056047;28;20060;-82
2023/08/14 03:34:38;;;;;;;4.43;1.33;;;;;;;14.54;73.03;101557.72;5058833;28;20056;-81
2023/08/14 03:37:05;;;;;;;2.53;1.52;;;;;;;14.44;73.02;101542.16;5055324;28;20394;-81
2023/08/14 03:39:33;;;;;;;2.95;1.10;;;;;;;14.53;72.89;101552.50;5054686;28;20094;-81
2023/08/14 03:42:00;;;;;;;2.05;1.35;;;;;;;14.44;72.96;101553.53;5058075;28;20059;-82
2023/08/14 03:44:27;;;;;;;3.83;1.45;;;;;;;14.48;73.13;101563.06;5056556;28;20051;-82
2023/08/14 03:46:54;;;;;;;2.15;1.10;;;;;;;14.50;72.94;101568.31;5056280;28;20056;-82
2023/08/14 03:49:21;;;;;;;3.20;1.25;;;;;;;14.25;72.93;101520.66;5056351;28;20044;-90
2023/08/14 03:51:48;;;;;;;1.88;1.48;;;;;;;14.34;73.20;101550.25;5056797;28;20048;-88
2023/08/14 03:54:15;;;;;;;4.80;1.58;;;;;;;14.47;73.20;101566.59;5059079;28;20415;-89
2023/08/14 03:56:43;;;;;;;1.83;1.30;;;;;;;14.47;73.23;101565.75;5059686;28;20491;-88
2023/08/14 03:59:12;;;;;;;3.42;1.20;;;;;;;14.46;73.42;101570.13;5058710;28;20044;-89
2023/08/14 04:01:43;;;;;;;3.60;1.40;;;;;;;14.45;73.67;101576.28;5057412;28;20052;-89
2023/08/14 04:04:10;;;;;;;1.77;1.30;;;;;;;14.45;73.58;101578.03;5062087;28;20052;-88
2023/08/14 04:06:37;;;;;;;2.70;1.45;;;;;;;14.45;73.83;101570.16;5059949;28;20044;-88
2023/08/14 04:09:05;;;;;;;4.10;1.60;;;;;;;14.44;73.65;101574.56;5059635;28;20434;-80
2023/08/14 04:11:32;;;;;;;2.47;1.55;;;;;;;14.41;73.98;101574.63;5055464;28;20104;-79
2023/08/14 04:14:01;;;;;;;1.40;1.20;;;;;;;14.45;74.01;101578.91;5057988;28;20051;-78
2023/08/14 04:16:41;;;;;;;2.78;1.30;;;;;;;14.45;74.14;101580.66;5058375;28;20041;-77
2023/08/14 04:19:09;;;;;;;1.42;1.17;;;;;;;14.44;74.08;101577.19;5053775;28;20056;-80
2023/08/14 04:21:36;;;;;;;3.13;1.00;;;;;;;14.45;74.30;101581.53;5055494;28;20095;-80
2023/08/14 04:24:03;;;;;;;4.05;1.60;;;;;;;14.47;74.48;101576.25;5052052;28;20041;-80
2023/08/14 04:26:30;;;;;;;13.30;2.40;;;;;;;14.47;74.83;101579.75;5052243;28;20048;-78
2023/08/14 04:28:57;;;;;;;1.75;1.30;;;;;;;14.49;74.95;101577.97;5060745;28;20385;-80
2023/08/14 04:31:25;;;;;;;1.50;1.35;;;;;;;14.50;75.13;101576.19;5057741;28;20037;-80
2023/08/14 04:33:52;;;;;;;2.90;1.95;;;;;;;14.50;75.19;101570.94;5056594;28;20060;-81
2023/08/14 04:36:19;;;;;;;3.40;1.80;;;;;;;14.47;75.41;101561.34;5059012;28;20510;-84
2023/08/14 04:38:46;;;;;;;1.88;1.52;;;;;;;14.49;75.47;101567.44;5059361;28;20086;-81
2023/08/14 04:41:13;;;;;;;4.18;1.55;;;;;;;14.53;75.67;101566.50;5057093;28;20243;-81
2023/08/14 04:43:40;;;;;;;3.40;2.45;;;;;;;14.62;76.15;101575.94;5053229;28;20051;-77
2023/08/14 04:46:10;;;;;;;3.80;2.53;;;;;;;14.63;76.31;101575.06;5050167;28;20062;-82
2023/08/14 04:48:39;;;;;;;5.40;2.13;;;;;;;14.70;76.55;101579.25;5055470;28;20056;-81
2023/08/14 04:51:07;;;;;;;4.03;2.22;;;;;;;14.73;76.85;101567.81;5065428;28;20090;-77
2023/08/14 04:53:34;;;;;;;6.47;2.33;;;;;;;14.80;76.92;101577.31;5057992;28;20410;-78
2023/08/14 04:56:00;;;;;;;7.20;2.25;;;;;;;14.85;77.07;101573.63;5067155;28;20047;-82
2023/08/14 04:58:27;;;;;;;6.22;2.17;;;;;;;14.93;77.45;101575.25;5062380;28;20764;-80
2023/08/14 05:00:54;;;;;;;6.07;3.03;;;;;;;14.99;77.56;101569.81;5059433;28;20048;-82
2023/08/14 05:03:21;;;;;;;5.72;2.67;;;;;;;14.89;77.47;101542.03;5057735;28;20037;-84
2023/08/14 05:05:53;;;;;;;2.33;2.10;;;;;;;15.17;77.71;101571.13;5059562;28;20049;-80
2023/08/14 05:08:20;;;;;;;4.28;1.90;;;;;;;15.25;77.62;101577.06;5057798;28;20041;-79
2023/08/14 05:10:51;;;;;;;3.70;2.03;;;;;;;15.35;77.55;101567.19;5057253;28;20469;-77
2023/08/14 05:13:18;;;;;;;3.75;1.80;;;;;;;15.43;77.46;101571.34;5056461;28;20044;-78
2023/08/14 05:15:45;;;;;;;3.03;1.80;;;;;;;15.53;77.53;101572.81;5063551;28;20052;-77
2023/08/14 05:18:11;;;;;;;5.80;2.10;;;;;;;15.62;77.56;101570.84;5057893;28;20120;-77
2023/08/14 05:20:38;;;;;;;3.25;1.33;;;;;;;15.71;77.48;101565.41;5058122;28;20045;-83
2023/08/14 05:23:07;;;;;;;4.22;1.40;;;;;;;15.81;77.19;101573.91;5055419;28;20122;-81
2023/08/14 05:25:34;;;;;;;5.22;2.08;;;;;;;15.81;77.26;101560.72;5051666;28;20055;-83
2023/08/14 05:28:01;;;;;;;6.80;1.90;;;;;;;15.85;77.04;101562.34;5065077;28;20052;-80
2023/08/14 05:30:28;;;;;;;6.82;2.25;;;;;;;16.04;76.91;101584.66;5057606;28;20045;-77
2023/08/14 05:32:55;;;;;;;4.75;2.00;;;;;;;16.14;76.96;101591.41;5058675;28;20051;-83
2023/08/14 05:35:23;;;;;;;3.08;1.35;;;;;;;16.21;76.73;101586.81;5057773;28;20269;-78
2023/08/14 05:37:52;;;;;;;4.55;1.48;;;;;;;16.29;76.76;101584.81;5061349;28;20136;-79
2023/08/14 05:40:20;;;;;;;9.43;1.80;;;;;;;16.36;76.59;101591.66;5057601;28;20045;-80
2023/08/14 05:43:02;;;;;;;6.68;1.30;;;;;;;16.27;76.64;101568.19;5053685;28;20110;-79
2023/08/14 05:45:28;;;;;;;2.38;1.33;;;;;;;16.51;76.36;101598.25;5056294;28;20048;-78
2023/08/14 05:47:55;;;;;;;3.17;1.60;;;;;;;16.59;76.26;101600.63;5056663;28;20047;-83
2023/08/14 05:50:22;;;;;;;6.32;2.13;;;;;;;16.56;76.04;101583.16;5056188;28;20063;-78
2023/08/14 05:52:49;;;;;;;3.85;1.50;;;;;;;16.72;75.97;101601.13;5046391;28;20042;-78
2023/08/14 05:55:16;;;;;;;4.78;1.30;;;;;;;16.78;75.68;101599.19;5050992;28;20045;-83
2023/08/14 05:57:45;;;;;;;10.18;3.10;;;;;;;16.84;75.67;101599.00;5063934;28;20512;-82
2023/08/14 06:00:13;;;;;;;10.23;1.60;;;;;;;16.79;75.61;101582.47;5059733;28;20127;-81
2023/08/14 06:02:40;;;;;;;7.57;1.73;;;;;;;16.97;75.33;101603.91;5054201;28;20566;-81
2023/08/14 06:05:08;;;;;;;10.48;2.08;;;;;;;17.02;75.68;101608.13;5061009;28;20058;-82
2023/08/14 06:07:35;;;;;;;3.72;1.55;;;;;;;17.07;75.74;101606.16;5059037;28;20040;-86
2023/08/14 06:10:03;;;;;;;5.72;2.05;;;;;;;17.13;75.66;101615.66;5056861;28;20044;-86
2023/08/14 06:12:30;;;;;;;6.47;1.63;;;;;;;17.19;75.84;101610.22;5061757;28;20468;-85
2023/08/14 06:14:58;;;;;;;5.05;1.60;;;;;;;17.13;76.00;101588.41;5063973;28;20050;-86
2023/08/14 06:17:25;;;;;;;8.60;1.52;;;;;;;17.31;75.72;101615.09;5056658;28;20044;-86
2023/08/14 06:19:52;;;;;;;6.93;1.60;;;;;;;17.37;75.95;101615.81;5064577;28;20060;-86
2023/08/14 06:22:20;;;;;;;3.53;1.77;;;;;;;17.33;75.90;101593.88;5060530;28;20041;-86
2023/08/14 06:24:48;;;;;;;8.77;2.00;;;;;;;17.49;75.79;101608.31;5055170;28;20873;-86
2023/08/14 06:27:14;;;;;;;10.48;1.80;;;;;;;17.55;75.92;101599.31;5056711;28;20086;-86
2023/08/14 06:29:41;;;;;;;7.30;1.92;;;;;;;17.62;75.81;101602.63;5058861;28;20063;-83
2023/08/14 06:32:10;;;;;;;12.00;1.95;;;;;;;17.70;75.74;101606.72;5056274;28;20059;-83
2023/08/14 06:34:37;;;;;;;6.65;2.30;;;;;;;17.65;75.40;101587.53;5063285;28;20500;-82
2023/08/14 06:37:04;;;;;;;6.60;1.73;;;;;;;17.77;75.46;101597.66;5060165;28;20059;-83
2023/08/14 06:39:31;;;;;;;8.73;1.85;;;;;;;17.89;75.28;101606.09;5066660;28;20067;-86
2023/08/14 06:41:58;;;;;;;13.57;2.28;;;;;;;17.95;74.91;101604.09;5066376;28;20055;-87
2023/08/14 06:44:25;;;;;;;7.60;2.00;;;;;;;18.02;74.81;101603.91;5060329;28;20055;-87
2023/08/14 06:46:52;;;;;;;4.53;1.75;;;;;;;18.06;74.83;101601.06;5057313;28;20071;-85
2023/08/14 06:49:21;;;;;;;10.90;1.83;;;;;;;18.08;74.85;101593.94;5065436;28;20070;-80
2023/08/14 06:51:47;;;;;;;8.77;2.03;;;;;;;18.01;74.70;101573.06;5058732;28;20049;-81
2023/08/14 06:54:14;;;;;;;8.90;1.92;;;;;;;18.31;74.29;101605.47;5065063;28;20048;-78
2023/08/14 06:56:41;;;;;;;7.90;1.73;;;;;;;18.38;74.22;101606.94;5052875;28;20056;-77
2023/08/14 06:59:08;;;;;;;11.77;1.98;;;;;;;18.38;74.53;101596.34;5057134;28;20048;-80
2023/08/14 07:01:35;;;;;;;13.82;2.05;;;;;;;18.52;74.27;101607.28;5054915;28;20065;-78
2023/08/14 07:04:02;;;;;;;7.05;1.20;;;;;;;18.58;74.61;101612.31;5058837;28;20574;-78
2023/08/14 07:06:31;;;;;;;6.70;2.17;;;;;;;18.65;74.17;101619.13;5054969;28;20045;-76
2023/08/14 07:08:57;;;;;;;12.73;1.90;;;;;;;18.74;73.69;101627.66;5053748;28;20059;-77
2023/08/14 07:11:24;;;;;;;10.07;1.13;;;;;;;18.82;73.39;101626.44;5057274;28;20051;-77
2023/08/14 07:13:51;;;;;;;8.45;1.42;;;;;;;18.91;73.13;101630.50;5059742;28;20483;-79
2023/08/14 07:16:18;;;;;;;9.95;1.67;;;;;;;19.00;72.76;101626.63;5055336;28;20052;-77
2023/08/14 07:18:45;;;;;;;10.77;1.55;;;;;;;19.06;72.46;101623.72;5056552;28;20124;-82
2023/08/14 07:21:12;;;;;;;10.45;1.70;;;;;;;19.13;72.17;101627.00;5060513;28;20066;-80
2023/08/14 07:23:40;;;;;;;13.23;1.35;;;;;;;19.21;72.21;101627.53;5057789;28;20049;-80
2023/08/14 07:26:12;;;;;;;7.20;1.20;;;;;;;19.09;71.67;101597.97;5051522;28;20040;-83
2023/08/14 07:28:39;;;;;;;12.38;1.52;;;;;;;19.36;71.48;101624.25;5056177;28;20056;-79
2023/08/14 07:31:06;;;;;;;8.48;1.33;;;;;;;19.44;71.72;101624.81;5053582;28;20052;-78
2023/08/14 07:33:34;;;;;;;5.22;1.02;;;;;;;19.54;70.63;101623.47;5057196;28;20041;-80
2023/08/14 07:36:02;;;;;;;9.07;1.40;;;;;;;19.63;70.39;101614.28;5057615;28;20048;-82
2023/08/14 07:38:29;;;;;;;5.93;1.50;;;;;;;19.80;70.20;101632.13;5057767;28;20045;-83
2023/08/14 07:40:57;;;;;;;6.00;0.90;;;;;;;19.93;69.50;101621.88;5060401;28;20461;-80
2023/08/14 07:43:24;;;;;;;7.07;1.17;;;;;;;20.06;69.59;101622.16;5062777;28;20055;-86
2023/08/14 07:45:52;;;;;;;8.95;1.58;;;;;;;20.16;69.83;101628.78;5053959;28;20442;-80
2023/08/14 07:48:19;;;;;;;7.18;1.13;;;;;;;20.28;69.78;101622.06;5052468;28;20045;-79
2023/08/14 07:50:52;;;;;;;6.15;1.40;;;;;;;20.39;70.09;101625.94;5053386;28;20048;-74
2023/08/14 07:53:18;;;;;;;7.85;1.30;;;;;;;20.51;69.27;101618.34;5051396;28;20076;-74
2023/08/14 07:55:48;;;;;;;9.52;2.35;;;;;;;20.57;68.41;101612.78;5046693;28;20483;-76
2023/08/14 07:58:16;;;;;;;4.63;1.08;;;;;;;20.76;68.64;101618.94;5006611;28;20052;-76
2023/08/14 08:00:43;;;;;;;7.38;1.02;;;;;;;20.88;68.33;101625.47;5049620;28;20080;-76
2023/08/14 08:03:10;;;;;;;6.07;1.20;;;;;;;21.01;67.92;101623.09;5052930;28;20045;-75
2023/08/14 08:05:37;;;;;;;5.47;0.93;;;;;;;21.12;67.87;101626.09;5051242;28;20059;-75
2023/08/14 08:08:05;;;;;;;8.18;1.13;;;;;;;21.24;67.24;101619.31;5050571;28;20107;-75
2023/08/14 08:10:32;;;;;;;10.43;1.50;;;;;;;21.36;66.72;101621.34;5049229;28;20056;-76
2023/08/14 08:12:59;;;;;;;8.60;1.65;;;;;;;21.47;66.61;101619.03;5050984;28;20499;-74
2023/08/14 08:15:28;;;;;;;3.92;0.60;;;;;;;21.61;66.11;101613.00;5046813;28;20045;-75
2023/08/14 08:17:55;;;;;;;7.97;1.20;;;;;;;21.72;64.92;101609.81;5051898;28;20483;-76
2023/08/14 08:20:22;;;;;;;5.03;1.00;;;;;;;21.85;65.04;101616.19;5053516;28;20137;-74
2023/08/14 08:22:49;;;;;;;7.10;0.90;;;;;;;21.95;64.53;101613.91;5013468;28;20396;-74
2023/08/14 08:25:17;;;;;;;5.63;0.80;;;;;;;22.06;64.13;101614.22;5057596;28;20048;-75
2023/08/14 08:27:44;;;;;;;7.00;0.70;;;;;;;22.16;64.51;101612.75;5056412;28;20040;-76
2023/08/14 08:30:12;;;;;;;7.03;0.88;;;;;;;22.21;63.99;101608.09;5059095;28;20096;-75
2023/08/14 08:32:41;;;;;;;6.00;0.60;;;;;;;22.34;63.25;101616.28;5052036;28;20495;-84
2023/08/14 08:35:09;;;;;;;5.32;0.90;;;;;;;22.42;63.27;101611.38;5059334;28;20065;-78
2023/08/14 08:37:36;;;;;;;9.95;1.92;;;;;;;22.50;63.16;101616.28;5061260;28;20055;-77
2023/08/14 08:40:05;;;;;;;6.97;1.20;;;;;;;22.55;62.48;101606.25;5059248;28;20387;-78
2023/08/14 08:42:33;;;;;;;8.32;0.75;;;;;;;22.58;63.33;101598.09;5057541;28;20052;-77
2023/08/14 08:45:04;;;;;;;4.00;0.93;;;;;;;22.69;62.09;101602.81;5057692;28;20056;-77
2023/08/14 08:47:34;;;;;;;10.15;0.95;;;;;;;22.80;61.90;101611.06;5054779;28;20045;-78
2023/08/14 08:50:03;;;;;;;8.25;0.93;;;;;;;22.79;61.80;101597.81;5060472;28;20051;-83
2023/08/14 08:52:32;;;;;;;7.13;1.27;;;;;;;22.91;61.96;101613.13;5055617;28;20052;-80
2023/08/14 08:55:01;;;;;;;12.68;1.23;;;;;;;22.83;61.58;101583.38;5056573;28;20102;-81
2023/08/14 08:57:29;;;;;;;10.65;1.25;;;;;;;23.00;61.36;101606.44;5063168;28;20049;-83
2023/08/14 08:59:59;;;;;;;9.23;1.13;;;;;;;23.04;62.33;101607.97;5064039;28;20051;-82
2023/08/14 09:02:25;;;;;;;7.32;1.27;;;;;;;;;;5058272;28;20041;-83
2023/08/14 09:04:52;;;;;;;8.55;1.23;;;;;;;23.13;61.55;101602.94;5061546;28;20040;-82
2023/08/14 09:07:21;;;;;;;7.00;0.93;;;;;;;23.10;61.34;101587.13;5057915;28;20056;-81
2023/08/14 09:09:49;;;;;;;9.05;0.80;;;;;;;23.17;60.47;101600.09;5056913;28;20048;-81
2023/08/14 09:12:15;;;;;;;7.10;2.00;;;;;;;23.25;60.93;101605.84;5068676;28;20051;-83
2023/08/14 09:14:44;;;;;;;8.93;0.90;;;;;;;23.28;60.84;101605.66;5065057;28;20048;-83
2023/08/14 09:17:12;;;;;;;7.65;0.70;;;;;;;23.28;60.99;101605.66;5060999;28;20063;-82
2023/08/14 09:19:40;;;;;;;6.40;0.70;;;;;;;23.31;60.19;101606.38;5064397;28;20123;-82
2023/08/14 09:22:08;;;;;;;10.95;0.88;;;;;;;23.36;60.99;101608.75;5065899;28;20044;-82
2023/08/14 09:24:37;;;;;;;6.82;1.00;;;;;;;23.39;60.76;101602.38;5058266;28;20075;-82
2023/08/14 09:27:04;;;;;;;5.72;0.73;;;;;;;23.28;60.69;101585.22;5060179;28;20045;-81
2023/08/14 09:29:32;;;;;;;12.40;1.15;;;;;;;23.41;60.27;101595.16;5056622;28;20055;-82
2023/08/14 09:32:00;;;;;;;8.80;0.60;;;;;;;23.44;60.25;101603.81;5065120;28;20048;-82
2023/08/14 09:34:30;;;;;;;5.57;0.80;;;;;;;23.48;60.06;101613.38;5057920;28;20422;-82
2023/08/14 09:36:58;;;;;;;6.38;0.63;;;;;;;23.43;59.27;101596.78;5055990;28;20076;-81
2023/08/14 09:39:25;;;;;;;6.65;0.57;;;;;;;23.51;59.24;101610.53;5057983;28;20041;-82
2023/08/14 09:41:54;;;;;;;6.97;0.98;;;;;;;23.49;59.40;101604.41;5057788;28;20049;-82
2023/08/14 09:44:21;;;;;;;5.63;0.73;;;;;;;23.53;59.38;101599.75;5052995;28;20048;-82
2023/08/14 09:46:54;;;;;;;7.90;0.65;;;;;;;23.49;59.26;101595.56;5057204;28;20061;-77
2023/08/14 09:49:21;;;;;;;4.60;0.73;;;;;;;23.54;59.40;101602.34;5057543;28;20056;-82
2023/08/14 09:51:55;;;;;;;12.23;1.42;;;;;;;23.56;59.05;101608.44;5061632;28;20140;-82
2023/08/14 09:54:32;;;;;;;5.15;0.98;;;;;;;23.60;59.20;101610.91;5059903;28;20048;-82
2023/08/14 09:57:04;;;;;;;6.50;0.57;;;;;;;23.62;58.23;101614.34;5062009;28;20045;-84
2023/08/14 09:59:32;;;;;;;5.40;0.60;;;;;;;23.62;57.68;101617.00;5056947;28;20041;-82
2023/08/14 10:02:00;;;;;;;7.53;0.60;;;;;;;23.58;57.92;101609.19;5055680;28;20050;-81
2023/08/14 10:04:29;;;;;;;5.18;0.68;;;;;;;23.54;57.56;101597.00;5050228;28;20496;-80
2023/08/14 10:06:57;;;;;;;5.65;0.50;;;;;;;23.62;58.01;101614.34;5054801;28;20045;-76
2023/08/14 10:09:27;;;;;;;2.92;0.50;;;;;;;23.62;57.83;101619.66;5051204;28;20497;-76
2023/08/14 10:11:57;;;;;;;6.70;0.70;;;;;;;23.61;57.24;101616.16;5053495;28;20045;-78
2023/08/14 10:14:27;;;;;;;2.75;0.60;;;;;;;23.58;57.22;101614.53;5058084;28;20494;-79
2023/08/14 10:16:57;;;;;;;3.75;0.40;;;;;;;23.49;56.68;101608.88;5051943;28;20812;-79
2023/08/14 10:19:25;;;;;;;3.22;0.47;;;;;;;23.57;57.60;101622.63;5056385;28;20053;-78
2023/08/14 10:21:54;;;;;;;2.60;0.60;;;;;;;23.56;57.94;101618.22;5052856;28;20076;-79
2023/08/14 10:24:23;;;;;;;3.88;0.40;;;;;;;23.57;57.31;101617.28;5065966;28;20444;-78
2023/08/14 10:26:50;;;;;;;7.47;0.57;;;;;;;23.56;57.53;101618.22;5056070;28;20946;-79
2023/08/14 10:29:18;;;;;;;6.18;0.35;;;;;;;23.55;56.84;101604.03;5058312;28;20055;-79
2023/08/14 10:31:47;;;;;;;4.80;0.40;;;;;;;23.40;56.87;101594.31;5055458;28;20048;-79
2023/08/14 10:34:15;;;;;;;5.97;0.43;;;;;;;23.54;56.53;101609.47;5060073;28;20048;-79
2023/08/14 10:36:42;;;;;;;6.93;0.40;;;;;;;23.56;57.14;101619.09;5056705;28;20427;-80
2023/08/14 10:39:11;;;;;;;5.90;0.50;;;;;;;23.47;57.24;101603.63;5057120;28;20048;-79
2023/08/14 10:41:38;;;;;;;5.80;0.50;;;;;;;23.55;56.89;101617.38;5062005;28;20048;-79
2023/08/14 10:44:07;;;;;;;3.05;0.40;;;;;;;23.55;57.07;101617.38;5062822;28;21380;-78
2023/08/14 10:46:38;;;;;;;5.38;0.50;;;;;;;23.54;56.67;101614.81;5061872;28;20053;-79
2023/08/14 10:49:06;;;;;;;7.10;0.50;;;;;;;23.56;56.77;101621.78;5058109;28;20407;-79
2023/08/14 10:51:34;;;;;;;5.95;0.40;;;;;;;23.38;56.96;101595.34;5053738;28;20524;-79
2023/08/14 10:54:11;;;;;;;5.38;0.70;;;;;;;23.57;56.52;101630.63;5058610;28;20044;-79
2023/08/14 10:56:42;;;;;;;2.20;0.35;;;;;;;23.60;56.88;101622.44;5057444;28;20049;-78
2023/08/14 10:59:20;;;;;;;1.73;0.40;;;;;;;23.63;56.78;101616.06;5054588;28;20045;-79
2023/08/14 11:01:51;;;;;;;6.20;0.65;;;;;;;23.64;56.67;101628.44;5058340;28;20771;-78
2023/08/14 11:04:20;;;;;;;2.70;0.50;;;;;;;23.64;55.81;101623.97;5055553;28;20130;-77
2023/08/14 11:07:01;;;;;;;1.55;0.40;;;;;;;23.70;56.41;101625.41;5058284;28;20064;-80
2023/08/14 11:09:29;;;;;;;6.95;0.60;;;;;;;23.63;56.68;101608.06;5061356;28;20055;-80
2023/08/14 11:11:57;;;;;;;3.22;0.43;;;;;;;23.71;55.72;101628.03;5059876;28;20051;-81
2023/08/14 11:14:24;;;;;;;1.70;0.77;;;;;;;23.78;54.70;101631.16;5055730;28;20051;-78
2023/08/14 11:16:51;;;;;;;3.22;0.47;;;;;;;23.81;55.43;101630.13;5057070;28;20059;-79
2023/08/14 11:19:20;;;;;;;2.97;0.32;;;;;;;23.84;54.57;101629.94;5057688;28;20052;-76
2023/08/14 11:21:47;;;;;;;2.10;0.63;;;;;;;23.85;55.18;101636.97;5063601;28;20045;-84
2023/08/14 11:24:15;;;;;;;5.03;0.82;;;;;;;23.79;54.54;101628.44;5055462;28;20063;-82
2023/08/14 11:26:42;;;;;;;2.15;0.30;;;;;;;23.83;54.25;101622.91;5057490;28;20072;-79
2023/08/14 11:29:09;;;;;;;3.65;0.68;;;;;;;23.87;54.38;101627.94;5055374;28;20482;-75